createdAt,value
2018-02-21T00:01:16.972Z,41.78
2018-02-21T00:03:45.103Z,45.00
2018-02-21T00:06:13.270Z,48.20
2018-02-21T00:08:41.410Z,42.85
2018-02-21T00:11:09.576Z,47.00
2018-02-21T00:13:37.713Z,36.08
2018-02-21T00:16:06.633Z,44.25
2018-02-21T00:18:34.782Z,38.03
2018-02-21T00:21:03.709Z,38.85
2018-02-21T00:23:31.851Z,40.65
2018-02-21T00:26:00.786Z,38.50
2018-02-21T00:28:28.919Z,40.53
2018-02-21T00:30:57.843Z,36.53
2018-02-21T00:33:25.983Z,37.17
2018-02-21T00:35:54.910Z,43.63
2018-02-21T00:38:23.049Z,42.65
2018-02-21T00:40:51.975Z,38.35
2018-02-21T00:43:20.112Z,44.65
2018-02-21T00:45:49.046Z,38.42
2018-02-21T00:48:17.178Z,36.40
2018-02-21T00:50:46.135Z,38.55
2018-02-21T00:53:14.278Z,35.13
2018-02-21T00:55:42.445Z,37.80
2018-02-21T00:58:10.579Z,39.00
2018-02-21T01:00:38.742Z,44.70
2018-02-21T01:03:06.880Z,37.10
2018-02-21T01:05:35.035Z,37.13
2018-02-21T01:08:03.178Z,39.53
2018-02-21T01:10:31.345Z,34.05
2018-02-21T01:13:00.242Z,40.22
2018-02-21T01:15:28.408Z,37.28
2018-02-21T01:17:57.313Z,36.53
2018-02-21T01:20:25.486Z,39.97
2018-02-21T01:22:54.385Z,45.08
2018-02-21T01:25:22.531Z,33.05
2018-02-21T01:27:50.689Z,39.92
2018-02-21T01:30:18.826Z,40.53
2018-02-21T01:32:46.988Z,35.45
2018-02-21T01:35:15.130Z,38.10
2018-02-21T01:37:44.056Z,45.33
2018-02-21T01:40:12.192Z,38.08
2018-02-21T01:42:40.355Z,44.45
2018-02-21T01:45:08.506Z,37.83
2018-02-21T01:47:36.671Z,39.08
2018-02-21T01:50:04.806Z,34.95
2018-02-21T01:52:32.984Z,43.03
2018-02-21T01:55:01.118Z,42.83
2018-02-21T01:57:29.285Z,33.42
2018-02-21T01:59:57.422Z,39.05
2018-02-21T02:02:25.582Z,41.95
2018-02-21T02:04:53.717Z,35.88
2018-02-21T02:07:21.876Z,46.22
2018-02-21T02:09:50.014Z,35.35
2018-02-21T02:12:18.187Z,39.08
2018-02-21T02:14:46.324Z,38.53
2018-02-21T02:17:14.480Z,32.78
2018-02-21T02:19:42.613Z,39.47
2018-02-21T02:22:10.777Z,39.13
2018-02-21T02:24:38.916Z,37.47
2018-02-21T02:27:07.077Z,43.92
2018-02-21T02:29:35.215Z,36.42
2018-02-21T02:32:03.375Z,40.80
2018-02-21T02:34:31.513Z,36.47
2018-02-21T02:36:59.680Z,36.67
2018-02-21T02:39:40.434Z,39.30
2018-02-21T02:42:08.598Z,37.53
2018-02-21T02:44:36.735Z,32.28
2018-02-21T02:47:04.898Z,35.55
2018-02-21T02:49:33.034Z,35.08
2018-02-21T02:52:01.194Z,36.85
2018-02-21T02:54:29.336Z,36.83
2018-02-21T02:56:57.499Z,41.58
2018-02-21T02:59:25.637Z,35.58
2018-02-21T03:01:53.793Z,34.67
2018-02-21T03:04:21.931Z,34.45
2018-02-21T03:06:50.093Z,37.30
2018-02-21T03:09:18.229Z,36.33
2018-02-21T03:11:46.394Z,39.90
2018-02-21T03:14:14.520Z,37.70
2018-02-21T03:16:42.686Z,31.90
2018-02-21T03:19:10.816Z,40.80
2018-02-21T03:21:38.981Z,38.45
2018-02-21T03:24:07.121Z,39.38
2018-02-21T03:26:35.281Z,42.72
2018-02-21T03:29:03.428Z,33.72
2018-02-21T03:31:31.595Z,37.33
2018-02-21T03:33:59.729Z,34.17
2018-02-21T03:36:27.890Z,36.45
2018-02-21T03:38:56.040Z,36.97
2018-02-21T03:41:24.183Z,36.33
2018-02-21T03:43:52.358Z,39.88
2018-02-21T03:46:20.488Z,40.00
2018-02-21T03:48:48.651Z,36.53
2018-02-21T03:51:16.789Z,39.22
2018-02-21T03:53:44.963Z,37.90
2018-02-21T03:56:13.861Z,43.47
2018-02-21T03:58:42.022Z,38.28
2018-02-21T04:01:10.925Z,37.45
2018-02-21T04:03:39.080Z,37.58
2018-02-21T04:06:07.991Z,42.35
2018-02-21T04:08:36.153Z,40.28
2018-02-21T04:11:05.050Z,35.10
2018-02-21T04:13:33.210Z,38.22
2018-02-21T04:16:02.110Z,38.28
2018-02-21T04:18:30.273Z,39.78
2018-02-21T04:20:58.406Z,35.50
2018-02-21T04:23:26.561Z,38.22
2018-02-21T04:25:54.698Z,33.38
2018-02-21T04:28:22.860Z,35.83
2018-02-21T04:30:51.005Z,31.58
2018-02-21T04:33:19.172Z,39.47
2018-02-21T04:35:47.307Z,37.28
2018-02-21T04:38:15.518Z,38.35
2018-02-21T04:40:43.651Z,37.45
2018-02-21T04:43:11.821Z,38.47
2018-02-21T04:45:39.956Z,36.05
2018-02-21T04:48:08.123Z,36.00
2018-02-21T04:50:36.258Z,33.10
2018-02-21T04:53:04.418Z,36.30
2018-02-21T04:55:32.553Z,34.50
2018-02-21T04:58:06.315Z,37.28
2018-02-21T05:00:34.455Z,33.53
2018-02-21T05:03:02.635Z,28.00
2018-02-21T05:05:31.538Z,33.40
2018-02-21T05:07:59.698Z,33.30
2018-02-21T05:10:28.596Z,35.40
2018-02-21T05:12:56.760Z,37.20
2018-02-21T05:15:25.668Z,35.40
2018-02-21T05:17:53.825Z,35.15
2018-02-21T05:20:22.727Z,43.95
2018-02-21T05:22:50.890Z,29.70
2018-02-21T05:25:19.784Z,31.45
2018-02-21T05:27:47.946Z,39.17
2018-02-21T05:30:16.082Z,35.60
2018-02-21T05:32:44.240Z,32.92
2018-02-21T05:35:12.380Z,31.75
2018-02-21T05:37:40.550Z,33.33
2018-02-21T05:40:09.463Z,33.10
2018-02-21T05:42:37.620Z,34.00
2018-02-21T05:45:06.522Z,38.45
2018-02-21T05:47:34.722Z,35.45
2018-02-21T05:50:02.870Z,35.65
2018-02-21T05:52:31.039Z,37.83
2018-02-21T05:54:59.174Z,31.75
2018-02-21T05:57:27.345Z,32.17
2018-02-21T05:59:55.485Z,37.45
2018-02-21T06:02:23.645Z,31.95
2018-02-21T06:04:51.786Z,30.90
2018-02-21T06:07:19.951Z,33.33
2018-02-21T06:09:48.086Z,30.70
2018-02-21T06:12:16.253Z,36.70
2018-02-21T06:14:44.399Z,30.37
2018-02-21T06:17:12.545Z,32.92
2018-02-21T06:19:40.719Z,33.60
2018-02-21T06:22:08.869Z,27.48
2018-02-21T06:24:37.037Z,27.17
2018-02-21T06:27:05.168Z,32.63
2018-02-21T06:29:33.344Z,35.08
2018-02-21T06:32:01.486Z,31.27
2018-02-21T06:34:29.654Z,34.63
2018-02-21T06:36:57.809Z,33.35
2018-02-21T06:39:25.970Z,34.38
2018-02-21T06:41:54.105Z,27.20
2018-02-21T06:44:23.035Z,34.72
2018-02-21T06:46:51.184Z,35.05
2018-02-21T06:49:19.372Z,36.47
2018-02-21T06:51:47.511Z,30.42
2018-02-21T06:54:16.276Z,38.17
2018-02-21T06:56:44.421Z,32.92
2018-02-21T06:59:12.577Z,33.10
2018-02-21T07:01:40.713Z,30.55
2018-02-21T07:04:08.868Z,31.02
2018-02-21T07:06:37.014Z,31.02
2018-02-21T07:09:05.178Z,34.42
2018-02-21T07:11:33.321Z,29.23
2018-02-21T07:14:01.495Z,27.70
2018-02-21T07:16:30.389Z,30.00
2018-02-21T07:18:58.558Z,30.75
2018-02-21T07:21:27.464Z,33.35
2018-02-21T07:23:55.618Z,30.62
2018-02-21T07:26:24.516Z,27.30
2018-02-21T07:28:52.677Z,36.88
2018-02-21T07:31:21.584Z,33.42
2018-02-21T07:33:49.757Z,31.00
2018-02-21T07:36:17.894Z,30.85
2018-02-21T07:38:46.057Z,26.87
2018-02-21T07:41:14.210Z,29.02
2018-02-21T07:43:42.372Z,33.15
2018-02-21T07:46:10.510Z,39.70
2018-02-21T07:48:38.668Z,45.97
2018-02-21T07:51:06.814Z,46.97
2018-02-21T07:53:35.250Z,59.25
2018-02-21T07:56:04.145Z,48.35
2018-02-21T07:58:32.312Z,30.08
2018-02-21T08:01:01.218Z,31.62
2018-02-21T08:03:29.401Z,32.58
2018-02-21T08:05:57.539Z,35.17
2018-02-21T08:08:25.702Z,30.90
2018-02-21T08:10:53.843Z,24.67
2018-02-21T08:13:21.997Z,26.90
2018-02-21T08:15:50.193Z,24.83
2018-02-21T08:18:18.357Z,22.65
2018-02-21T08:20:46.538Z,26.50
2018-02-21T08:23:14.694Z,21.37
2018-02-21T08:25:42.824Z,27.30
2018-02-21T08:28:10.997Z,27.58
2018-02-21T08:30:39.908Z,21.42
2018-02-21T08:33:08.125Z,27.73
2018-02-21T08:35:36.253Z,27.95
2018-02-21T08:38:04.384Z,25.05
2018-02-21T08:40:32.542Z,26.92
2018-02-21T08:43:00.682Z,24.37
2018-02-21T08:45:28.918Z,23.25
2018-02-21T08:47:57.057Z,25.70
2018-02-21T08:50:25.886Z,24.95
2018-02-21T08:52:54.028Z,27.55
2018-02-21T08:55:22.185Z,24.58
2018-02-21T08:57:50.317Z,30.08
2018-02-21T09:00:19.243Z,28.17
2018-02-21T09:02:47.381Z,25.98
2018-02-21T09:05:16.318Z,30.77
2018-02-21T09:07:44.446Z,27.85
2018-02-21T09:10:13.378Z,29.12
2018-02-21T09:12:41.511Z,30.98
2018-02-21T09:15:10.473Z,28.00
2018-02-21T09:17:38.614Z,27.62
2018-02-21T09:20:06.781Z,30.00
2018-02-21T09:22:34.908Z,30.40
2018-02-21T09:25:03.066Z,32.80
2018-02-21T09:27:31.197Z,29.58
2018-02-21T09:29:59.360Z,30.83
2018-02-21T09:32:27.493Z,28.23
2018-02-21T09:34:55.650Z,24.00
2018-02-21T09:37:23.781Z,27.15
2018-02-21T09:39:51.947Z,28.67
2018-02-21T09:42:20.075Z,35.58
2018-02-21T09:44:48.998Z,28.83
2018-02-21T09:47:17.132Z,27.05
2018-02-21T09:49:45.292Z,26.12
2018-02-21T09:52:13.430Z,30.67
2018-02-21T09:54:42.356Z,30.27
2018-02-21T09:57:10.490Z,28.40
2018-02-21T09:59:39.413Z,29.63
2018-02-21T10:02:07.542Z,26.58
2018-02-21T10:04:35.696Z,26.83
2018-02-21T10:07:04.749Z,26.85
2018-02-21T10:09:32.904Z,25.02
2018-02-21T10:12:01.043Z,25.10
2018-02-21T10:14:29.197Z,26.50
2018-02-21T10:16:57.369Z,27.27
2018-02-21T10:19:25.534Z,26.55
2018-02-21T10:21:53.673Z,23.00
2018-02-21T10:24:22.598Z,21.60
2018-02-21T10:26:50.734Z,23.62
2018-02-21T10:29:36.711Z,23.62
2018-02-21T10:32:04.842Z,25.30
2018-02-21T10:34:33.425Z,20.08
2018-02-21T10:37:01.558Z,20.35
2018-02-21T10:39:29.713Z,19.10
2018-02-21T10:41:57.860Z,17.83
2018-02-21T10:44:26.030Z,31.08
2018-02-21T10:46:54.178Z,19.42
2018-02-21T10:49:22.337Z,19.60
2018-02-21T10:51:50.469Z,21.73
2018-02-21T10:54:18.645Z,24.63
2018-02-21T10:56:46.777Z,24.50
2018-02-21T10:59:14.948Z,20.25
2018-02-21T11:01:43.094Z,18.62
2018-02-21T11:04:12.012Z,19.45
2018-02-21T11:06:40.145Z,15.93
2018-02-21T11:09:09.076Z,19.67
2018-02-21T11:11:37.214Z,19.23
2018-02-21T11:14:06.152Z,19.08
2018-02-21T11:16:34.313Z,18.92
2018-02-21T11:19:02.486Z,16.83
2018-02-21T11:21:30.631Z,18.00
2018-02-21T11:23:58.777Z,17.37
2018-02-21T11:26:27.016Z,17.65
2018-02-21T11:28:55.218Z,26.20
2018-02-21T11:31:23.380Z,23.48
2018-02-21T11:33:51.515Z,19.23
2018-02-21T11:36:19.672Z,21.45
2018-02-21T11:38:47.807Z,22.05
2018-02-21T11:41:15.982Z,22.55
2018-02-21T11:43:44.142Z,20.08
2018-02-21T11:46:12.331Z,21.73
2018-02-21T11:48:40.477Z,19.50
2018-02-21T11:51:08.645Z,18.50
2018-02-21T11:53:36.793Z,18.67
2018-02-21T11:56:04.945Z,19.55
2018-02-21T11:58:33.072Z,19.37
2018-02-21T12:01:01.239Z,20.33
2018-02-21T12:03:29.372Z,22.05
2018-02-21T12:05:57.535Z,18.85
2018-02-21T12:08:25.681Z,23.52
2018-02-21T12:10:53.846Z,20.75
2018-02-21T12:13:21.979Z,18.77
2018-02-21T12:15:50.137Z,20.92
2018-02-21T12:18:19.040Z,21.83
2018-02-21T12:20:47.209Z,23.38
2018-02-21T12:23:16.105Z,24.15
2018-02-21T12:25:44.265Z,21.17
2018-02-21T12:28:12.389Z,25.35
2018-02-21T12:30:40.546Z,22.55
2018-02-21T12:33:08.688Z,22.05
2018-02-21T12:35:36.846Z,24.45
2018-02-21T12:38:04.981Z,23.10
2018-02-21T12:40:38.736Z,24.10
2018-02-21T12:43:06.882Z,24.27
2018-02-21T12:45:35.045Z,22.75
2018-02-21T12:48:03.200Z,25.95
2018-02-21T12:50:31.362Z,18.60
2018-02-21T12:52:59.494Z,15.40
2018-02-21T12:55:27.712Z,16.10
2018-02-21T12:57:55.801Z,17.37
2018-02-21T13:00:23.956Z,14.20
2018-02-21T13:02:52.119Z,12.23
2018-02-21T13:05:20.284Z,12.88
2018-02-21T13:07:48.416Z,14.20
2018-02-21T13:10:16.577Z,17.92
2018-02-21T13:12:44.714Z,14.80
2018-02-21T13:15:12.865Z,14.48
2018-02-21T13:17:41.001Z,15.60
2018-02-21T13:20:09.926Z,15.65
2018-02-21T13:22:38.062Z,17.50
2018-02-21T13:25:06.229Z,27.60
2018-02-21T13:27:34.368Z,17.85
2018-02-21T13:30:03.307Z,15.80
2018-02-21T13:32:31.449Z,18.10
2018-02-21T13:34:59.610Z,15.88
2018-02-21T13:37:27.746Z,17.15
2018-02-21T13:39:55.909Z,16.50
2018-02-21T13:42:24.033Z,18.45
2018-02-21T13:44:52.157Z,16.25
2018-02-21T13:47:20.326Z,18.10
2018-02-21T13:49:48.464Z,19.75
2018-02-21T13:52:16.633Z,17.83
2018-02-21T13:54:44.805Z,16.00
2018-02-21T13:57:12.976Z,16.87
2018-02-21T13:59:41.106Z,14.77
2018-02-21T14:02:09.266Z,11.65
2018-02-21T14:04:37.393Z,13.68
2018-02-21T14:07:05.564Z,12.95
2018-02-21T14:09:33.697Z,11.00
2018-02-21T14:12:01.861Z,13.30
2018-02-21T14:14:29.981Z,13.48
2018-02-21T14:16:58.141Z,13.82
2018-02-21T14:19:26.278Z,18.12
2018-02-21T14:21:54.433Z,12.02
2018-02-21T14:24:22.630Z,14.23
2018-02-21T14:26:50.816Z,13.15
2018-02-21T14:29:18.962Z,12.05
2018-02-21T14:31:47.122Z,11.35
2018-02-21T14:34:15.266Z,12.80
2018-02-21T14:36:43.420Z,15.98
2018-02-21T14:39:11.546Z,12.10
2018-02-21T14:41:39.692Z,13.23
2018-02-21T14:44:07.826Z,11.07
2018-02-21T14:46:36.030Z,8.73
2018-02-21T14:49:04.930Z,9.70
2018-02-21T14:51:33.092Z,14.68
2018-02-21T14:54:01.994Z,11.23
2018-02-21T14:56:30.157Z,10.63
2018-02-21T14:58:59.053Z,13.75
2018-02-21T15:01:27.218Z,13.70
2018-02-21T15:03:56.130Z,15.35
2018-02-21T15:06:24.284Z,15.60
2018-02-21T15:08:53.191Z,13.75
2018-02-21T15:11:21.356Z,12.48
2018-02-21T15:13:50.249Z,13.25
2018-02-21T15:16:23.965Z,17.85
2018-02-21T15:18:52.100Z,11.98
2018-02-21T15:21:20.265Z,11.77
2018-02-21T15:23:48.396Z,15.35
2018-02-21T15:26:16.558Z,13.80
2018-02-21T15:28:44.685Z,12.45
2018-02-21T15:31:12.843Z,12.20
2018-02-21T15:33:40.971Z,10.38
2018-02-21T15:36:09.127Z,13.93
2018-02-21T15:38:38.103Z,10.32
2018-02-21T15:41:06.216Z,13.05
2018-02-21T15:43:34.345Z,15.18
2018-02-21T15:46:02.505Z,14.35
2018-02-21T15:48:30.634Z,12.13
2018-02-21T15:50:58.801Z,12.40
2018-02-21T15:53:26.943Z,12.20
2018-02-21T15:55:55.122Z,12.88
2018-02-21T15:58:23.256Z,13.40
2018-02-21T16:00:51.432Z,11.98
2018-02-21T16:03:19.568Z,13.38
2018-02-21T16:05:47.720Z,14.57
2018-02-21T16:08:15.876Z,11.82
2018-02-21T16:10:44.008Z,11.20
2018-02-21T16:13:12.170Z,10.52
2018-02-21T16:15:40.318Z,11.32
2018-02-21T16:18:08.464Z,11.57
2018-02-21T16:20:36.594Z,14.68
2018-02-21T16:23:04.806Z,13.60
2018-02-21T16:25:32.920Z,12.00
2018-02-21T16:28:01.068Z,15.48
2018-02-21T16:30:29.209Z,14.90
2018-02-21T16:32:57.362Z,11.55
2018-02-21T16:35:25.503Z,14.75
2018-02-21T16:37:53.683Z,14.30
2018-02-21T16:40:22.585Z,17.20
2018-02-21T16:42:50.746Z,11.60
2018-02-21T16:45:19.655Z,14.25
2018-02-21T16:47:47.820Z,13.07
2018-02-21T16:50:16.719Z,15.15
2018-02-21T16:52:44.902Z,13.60
2018-02-21T16:55:13.035Z,14.00
2018-02-21T16:57:41.199Z,15.98
2018-02-21T17:00:09.330Z,14.65
2018-02-21T17:02:37.491Z,12.45
2018-02-21T17:05:05.625Z,13.30
2018-02-21T17:07:33.786Z,15.85
2018-02-21T17:10:01.928Z,15.18
2018-02-21T17:12:30.094Z,19.23
2018-02-21T17:14:58.229Z,16.67
2018-02-21T17:17:26.400Z,16.73
2018-02-21T17:19:55.305Z,13.07
2018-02-21T17:22:23.461Z,18.15
2018-02-21T17:24:51.609Z,19.58
2018-02-21T17:27:19.764Z,14.07
2018-02-21T17:29:47.910Z,19.02
2018-02-21T17:32:16.073Z,17.77
2018-02-21T17:34:44.302Z,17.58
2018-02-21T17:37:12.661Z,20.12
2018-02-21T17:39:40.889Z,21.33
2018-02-21T17:42:09.049Z,14.52
2018-02-21T17:44:37.194Z,16.42
2018-02-21T17:47:05.447Z,18.83
2018-02-21T17:49:33.665Z,12.65
2018-02-21T17:52:01.915Z,15.68
2018-02-21T17:54:30.209Z,21.05
2018-02-21T17:56:58.396Z,22.85
2018-02-21T17:59:26.640Z,21.45
2018-02-21T18:01:54.827Z,19.58
2018-02-21T18:04:22.960Z,19.45
2018-02-21T18:06:51.130Z,19.62
2018-02-21T18:09:19.264Z,21.70
2018-02-21T18:11:47.438Z,19.23
2018-02-21T18:14:15.586Z,22.25
2018-02-21T18:16:43.756Z,17.10
2018-02-21T18:19:11.896Z,21.17
2018-02-21T18:21:45.789Z,17.85
2018-02-21T18:24:13.950Z,17.62
2018-02-21T18:26:42.229Z,14.05
2018-02-21T18:29:10.672Z,18.45
2018-02-21T18:31:39.217Z,17.70
2018-02-21T18:34:07.760Z,16.40
2018-02-21T18:36:36.325Z,16.73
2018-02-21T18:39:05.062Z,27.05
2018-02-21T18:41:33.715Z,20.33
2018-02-21T18:44:01.943Z,26.80
2018-02-21T18:46:30.999Z,29.17
2018-02-21T18:48:59.745Z,36.53
2018-02-21T18:51:28.986Z,29.83
2018-02-21T18:53:57.871Z,28.30
2018-02-21T18:56:27.259Z,25.20
2018-02-21T18:58:57.802Z,25.25
2018-02-21T19:01:27.174Z,24.85
2018-02-21T19:03:56.563Z,24.75
2018-02-21T19:06:25.928Z,22.23
2018-02-21T19:08:54.164Z,22.85
2018-02-21T19:11:22.659Z,20.45
2018-02-21T19:13:51.023Z,19.80
2018-02-21T19:16:20.100Z,24.30
2018-02-21T19:18:48.284Z,25.90
2018-02-21T19:21:16.430Z,20.08
2018-02-21T19:23:44.632Z,19.45
2018-02-21T19:26:12.786Z,19.42
2018-02-21T19:28:40.945Z,24.83
2018-02-21T19:31:09.082Z,19.60
2018-02-21T19:33:38.906Z,22.25
2018-02-21T19:36:07.059Z,22.08
2018-02-21T19:38:35.232Z,18.80
2018-02-21T19:41:03.376Z,17.87
2018-02-21T19:43:31.794Z,16.83
2018-02-21T19:46:00.003Z,21.33
2018-02-21T19:48:28.930Z,19.40
2018-02-21T19:50:57.091Z,15.25
2018-02-21T19:53:25.272Z,19.17
2018-02-21T19:55:53.437Z,19.02
2018-02-21T19:58:21.630Z,16.85
2018-02-21T20:00:49.772Z,22.92
2018-02-21T20:03:18.969Z,20.15
2018-02-21T20:05:47.556Z,18.27
2018-02-21T20:08:15.957Z,19.75
2018-02-21T20:10:45.128Z,15.55
2018-02-21T20:13:13.974Z,22.15
2018-02-21T20:15:43.030Z,19.52
2018-02-21T20:18:11.771Z,19.30
2018-02-21T20:20:41.095Z,17.25
2018-02-21T20:23:10.698Z,16.48
2018-02-21T20:25:38.970Z,16.30
2018-02-21T20:28:07.930Z,21.62
2018-02-21T20:30:36.065Z,17.48
2018-02-21T20:33:04.362Z,21.70
2018-02-21T20:35:32.548Z,17.45
2018-02-21T20:38:00.726Z,19.52
2018-02-21T20:40:28.869Z,12.70
2018-02-21T20:42:57.104Z,15.23
2018-02-21T20:45:25.374Z,16.12
2018-02-21T20:47:54.411Z,17.62
2018-02-21T20:50:22.697Z,17.90
2018-02-21T20:52:50.984Z,20.67
2018-02-21T20:55:19.239Z,15.63
2018-02-21T20:57:47.417Z,21.37
2018-02-21T21:00:15.581Z,17.52
2018-02-21T21:02:43.756Z,21.80
2018-02-21T21:05:11.935Z,17.40
2018-02-21T21:07:40.122Z,19.27
2018-02-21T21:10:08.282Z,25.73
2018-02-21T21:12:36.431Z,21.75
2018-02-21T21:15:04.653Z,18.52
2018-02-21T21:17:32.781Z,17.23
2018-02-21T21:20:00.971Z,18.52
2018-02-21T21:22:29.139Z,23.23
2018-02-21T21:24:57.305Z,19.60
2018-02-21T21:27:26.210Z,20.33
2018-02-21T21:29:54.384Z,15.82
2018-02-21T21:32:22.508Z,21.73
2018-02-21T21:34:50.669Z,17.12
2018-02-21T21:37:18.853Z,19.87
2018-02-21T21:39:47.023Z,18.30
2018-02-21T21:42:15.159Z,28.17
2018-02-21T21:44:43.322Z,20.58
2018-02-21T21:47:11.457Z,21.00
2018-02-21T21:49:39.617Z,18.85
2018-02-21T21:52:07.765Z,17.95
2018-02-21T21:54:35.925Z,18.98
2018-02-21T21:57:04.088Z,18.15
2018-02-21T21:59:32.275Z,18.70
2018-02-21T22:02:00.430Z,22.50
2018-02-21T22:04:28.638Z,18.02
2018-02-21T22:06:56.761Z,18.62
2018-02-21T22:09:24.920Z,22.10
2018-02-21T22:11:53.162Z,16.92
2018-02-21T22:14:21.319Z,16.65
2018-02-21T22:16:49.483Z,19.25
2018-02-21T22:19:17.644Z,22.60
2018-02-21T22:21:45.781Z,16.67
2018-02-21T22:24:13.970Z,15.57
2018-02-21T22:26:42.129Z,17.58
2018-02-21T22:29:10.320Z,20.15
2018-02-21T22:31:38.457Z,25.02
2018-02-21T22:34:06.630Z,24.63
2018-02-21T22:36:34.770Z,15.85
2018-02-21T22:39:02.958Z,17.77
2018-02-21T22:41:31.090Z,17.52
2018-02-21T22:43:59.250Z,16.92
2018-02-21T22:46:27.386Z,17.37
2018-02-21T22:48:55.549Z,19.27
2018-02-21T22:51:23.741Z,17.35
2018-02-21T22:53:51.873Z,19.37
2018-02-21T22:56:20.774Z,18.15
2018-02-21T22:58:48.933Z,23.65
2018-02-21T23:01:17.832Z,20.52
2018-02-21T23:03:46.021Z,21.20
2018-02-21T23:06:14.158Z,20.77
2018-02-21T23:08:42.326Z,19.55
2018-02-21T23:11:10.453Z,15.48
2018-02-21T23:13:38.617Z,15.68
2018-02-21T23:16:06.758Z,20.33
2018-02-21T23:18:34.925Z,19.05
2018-02-21T23:21:03.069Z,17.15
2018-02-21T23:23:31.239Z,20.98
2018-02-21T23:25:59.369Z,20.05
2018-02-21T23:28:27.534Z,22.02
2018-02-21T23:30:55.694Z,23.42
2018-02-21T23:33:24.602Z,20.27
2018-02-21T23:35:52.761Z,16.83
2018-02-21T23:38:21.662Z,18.77
2018-02-21T23:40:49.835Z,19.90
2018-02-21T23:43:18.735Z,22.67
2018-02-21T23:45:46.894Z,17.95
2018-02-21T23:48:15.796Z,23.23
2018-02-21T23:50:43.958Z,24.63
2018-02-21T23:53:12.863Z,20.52
2018-02-21T23:55:41.021Z,20.23
2018-02-21T23:58:09.917Z,20.70
